sensor_id;sensor_type;location;lat;lon;timestamp;pressure;altitude;pressure_sealevel;temperature;humidity
20983;BME280;10650;51.528;6.748;2023-04-08T00:02:03;101996.09;;;9.33;94.07
20983;BME280;10650;51.528;6.748;2023-04-08T00:04:31;101996.13;;;9.35;93.90
20983;BME280;10650;51.528;6.748;2023-04-08T00:06:59;101996.16;;;9.37;93.88
20983;BME280;10650;51.528;6.748;2023-04-08T00:09:27;101995.28;;;9.38;93.89
20983;BME280;10650;51.528;6.748;2023-04-08T00:11:54;102002.44;;;9.40;93.46
20983;BME280;10650;51.528;6.748;2023-04-08T00:14:23;102002.34;;;9.35;93.74
20983;BME280;10650;51.528;6.748;2023-04-08T00:16:52;101997.88;;;9.33;93.39
20983;BME280;10650;51.528;6.748;2023-04-08T00:19:20;102005.91;;;9.34;93.70
20983;BME280;10650;51.528;6.748;2023-04-08T00:21:48;102003.25;;;9.34;93.83
20983;BME280;10650;51.528;6.748;2023-04-08T00:24:16;102005.97;;;9.38;93.30
20983;BME280;10650;51.528;6.748;2023-04-08T00:26:44;102000.63;;;9.38;93.39
20983;BME280;10650;51.528;6.748;2023-04-08T00:29:12;102001.53;;;9.40;93.27
20983;BME280;10650;51.528;6.748;2023-04-08T00:31:40;102005.16;;;9.43;93.22
20983;BME280;10650;51.528;6.748;2023-04-08T00:34:09;102006.03;;;9.44;93.33
20983;BME280;10650;51.528;6.748;2023-04-08T00:36:37;102002.53;;;9.46;92.58
20983;BME280;10650;51.528;6.748;2023-04-08T00:39:05;102009.69;;;9.49;93.03
20983;BME280;10650;51.528;6.748;2023-04-08T00:41:33;102014.13;;;9.48;92.95
20983;BME280;10650;51.528;6.748;2023-04-08T00:44:01;102008.75;;;9.47;92.67
20983;BME280;10650;51.528;6.748;2023-04-08T00:46:29;102013.22;;;9.46;92.75
20983;BME280;10650;51.528;6.748;2023-04-08T00:48:58;102013.16;;;9.43;92.53
20983;BME280;10650;51.528;6.748;2023-04-08T00:51:29;102010.50;;;9.43;93.02
20983;BME280;10650;51.528;6.748;2023-04-08T00:53:57;102022.94;;;9.43;92.55
20983;BME280;10650;51.528;6.748;2023-04-08T00:56:26;102018.44;;;9.40;92.40
20983;BME280;10650;51.528;6.748;2023-04-08T00:58:54;102017.50;;;9.38;92.34
20983;BME280;10650;51.528;6.748;2023-04-08T01:01:27;102021.09;;;9.39;92.40
20983;BME280;10650;51.528;6.748;2023-04-08T01:04:06;102014.84;;;9.38;92.63
20983;BME280;10650;51.528;6.748;2023-04-08T01:06:41;102021.97;;;9.39;92.85
20983;BME280;10650;51.528;6.748;2023-04-08T01:09:12;102022.84;;;9.38;92.21
20983;BME280;10650;51.528;6.748;2023-04-08T01:11:42;102023.66;;;9.34;92.27
20983;BME280;10650;51.528;6.748;2023-04-08T01:14:15;102021.84;;;9.30;92.32
20983;BME280;10650;51.528;6.748;2023-04-08T01:16:44;102032.41;;;9.25;92.09
20983;BME280;10650;51.528;6.748;2023-04-08T01:19:26;102024.41;;;9.25;92.55
20983;BME280;10650;51.528;6.748;2023-04-08T01:22:02;102024.44;;;9.27;92.49
20983;BME280;10650;51.528;6.748;2023-04-08T01:24:35;102021.72;;;9.24;92.23
20983;BME280;10650;51.528;6.748;2023-04-08T01:27:08;102019.06;;;9.25;92.55
20983;BME280;10650;51.528;6.748;2023-04-08T01:29:37;102019.09;;;9.27;92.13
20983;BME280;10650;51.528;6.748;2023-04-08T01:32:06;102015.56;;;9.28;92.26
20983;BME280;10650;51.528;6.748;2023-04-08T01:34:36;102021.78;;;9.28;92.23
20983;BME280;10650;51.528;6.748;2023-04-08T01:37:05;102030.69;;;9.27;92.09
20983;BME280;10650;51.528;6.748;2023-04-08T01:39:34;102031.56;;;9.28;91.88
20983;BME280;10650;51.528;6.748;2023-04-08T01:42:03;102029.78;;;9.28;92.12
20983;BME280;10650;51.528;6.748;2023-04-08T01:44:33;102027.94;;;9.23;92.03
20983;BME280;10650;51.528;6.748;2023-04-08T01:47:02;102032.28;;;9.17;91.97
20983;BME280;10650;51.528;6.748;2023-04-08T01:49:31;102025.19;;;9.20;92.61
20983;BME280;10650;51.528;6.748;2023-04-08T01:51:59;102023.47;;;9.22;92.29
20983;BME280;10650;51.528;6.748;2023-04-08T01:54:27;102028.75;;;9.17;92.32
20983;BME280;10650;51.528;6.748;2023-04-08T01:56:56;102034.97;;;9.17;92.86
20983;BME280;10650;51.528;6.748;2023-04-08T01:59:28;102042.97;;;9.17;92.21
20983;BME280;10650;51.528;6.748;2023-04-08T02:01:59;102034.78;;;9.08;92.54
20983;BME280;10650;51.528;6.748;2023-04-08T02:04:28;102038.38;;;9.09;92.29
20983;BME280;10650;51.528;6.748;2023-04-08T02:06:56;102037.50;;;9.10;92.58
20983;BME280;10650;51.528;6.748;2023-04-08T02:09:24;102032.06;;;9.05;92.34
20983;BME280;10650;51.528;6.748;2023-04-08T02:11:52;102032.03;;;9.04;92.19
20983;BME280;10650;51.528;6.748;2023-04-08T02:14:22;102030.31;;;9.06;93.06
20983;BME280;10650;51.528;6.748;2023-04-08T02:16:53;102029.38;;;9.04;92.48
20983;BME280;10650;51.528;6.748;2023-04-08T02:19:26;102026.72;;;9.05;93.27
20983;BME280;10650;51.528;6.748;2023-04-08T02:22:05;102040.03;;;9.04;92.72
20983;BME280;10650;51.528;6.748;2023-04-08T02:24:37;102040.97;;;9.04;92.35
20983;BME280;10650;51.528;6.748;2023-04-08T02:27:07;102033.78;;;9.02;92.73
20983;BME280;10650;51.528;6.748;2023-04-08T02:29:39;102033.78;;;9.00;92.33
20983;BME280;10650;51.528;6.748;2023-04-08T02:32:09;102038.19;;;8.99;92.13
20983;BME280;10650;51.528;6.748;2023-04-08T02:34:43;102031.97;;;8.99;92.11
20983;BME280;10650;51.528;6.748;2023-04-08T02:37:11;102041.72;;;8.97;92.15
20983;BME280;10650;51.528;6.748;2023-04-08T02:39:39;102045.25;;;8.97;92.19
20983;BME280;10650;51.528;6.748;2023-04-08T02:42:06;102045.25;;;8.96;92.47
20983;BME280;10650;51.528;6.748;2023-04-08T02:44:37;102041.66;;;8.95;91.91
20983;BME280;10650;51.528;6.748;2023-04-08T02:47:05;102046.91;;;8.91;92.03
20983;BME280;10650;51.528;6.748;2023-04-08T02:49:32;102043.34;;;8.89;91.83
20983;BME280;10650;51.528;6.748;2023-04-08T02:52:02;102043.28;;;8.86;92.40
20983;BME280;10650;51.528;6.748;2023-04-08T02:54:30;102037.03;;;8.85;91.61
20983;BME280;10650;51.528;6.748;2023-04-08T02:56:57;102035.19;;;8.82;91.72
20983;BME280;10650;51.528;6.748;2023-04-08T02:59:25;102041.41;;;8.81;91.77
20983;BME280;10650;51.528;6.748;2023-04-08T03:01:53;102044.88;;;8.77;91.48
20983;BME280;10650;51.528;6.748;2023-04-08T03:04:21;102044.81;;;8.73;91.47
20983;BME280;10650;51.528;6.748;2023-04-08T03:06:48;102039.44;;;8.71;91.56
20983;BME280;10650;51.528;6.748;2023-04-08T03:09:18;102045.56;;;8.65;91.34
20983;BME280;10650;51.528;6.748;2023-04-08T03:11:45;102044.56;;;8.60;91.72
20983;BME280;10650;51.528;6.748;2023-04-08T03:14:18;102046.31;;;8.58;92.17
20983;BME280;10650;51.528;6.748;2023-04-08T03:16:45;102052.44;;;8.54;91.91
20983;BME280;10650;51.528;6.748;2023-04-08T03:19:14;102053.19;;;8.48;92.11
20983;BME280;10650;51.528;6.748;2023-04-08T03:21:42;102052.25;;;8.46;92.23
20983;BME280;10650;51.528;6.748;2023-04-08T03:24:10;102056.66;;;8.44;92.19
20983;BME280;10650;51.528;6.748;2023-04-08T03:26:39;102054.81;;;8.43;92.75
20983;BME280;10650;51.528;6.748;2023-04-08T03:29:06;102050.25;;;8.36;92.65
20983;BME280;10650;51.528;6.748;2023-04-08T03:31:35;102049.38;;;8.37;93.27
20983;BME280;10650;51.528;6.748;2023-04-08T03:34:03;102047.59;;;8.38;93.33
20983;BME280;10650;51.528;6.748;2023-04-08T03:36:31;102052.03;;;8.37;93.07
20983;BME280;10650;51.528;6.748;2023-04-08T03:38:59;102052.94;;;8.38;93.66
20983;BME280;10650;51.528;6.748;2023-04-08T03:41:26;102056.50;;;8.38;93.77
20983;BME280;10650;51.528;6.748;2023-04-08T03:43:56;102060.91;;;8.38;94.22
20983;BME280;10650;51.528;6.748;2023-04-08T03:46:24;102057.41;;;8.39;94.12
20983;BME280;10650;51.528;6.748;2023-04-08T03:48:52;102062.81;;;8.43;93.96
20983;BME280;10650;51.528;6.748;2023-04-08T03:51:20;102065.53;;;8.45;93.85
20983;BME280;10650;51.528;6.748;2023-04-08T03:53:48;102060.94;;;8.39;93.16
20983;BME280;10650;51.528;6.748;2023-04-08T03:56:15;102061.56;;;8.26;93.31
20983;BME280;10650;51.528;6.748;2023-04-08T03:58:43;102064.06;;;8.18;93.67
20983;BME280;10650;51.528;6.748;2023-04-08T04:01:12;102070.28;;;8.19;94.03
20983;BME280;10650;51.528;6.748;2023-04-08T04:03:40;102070.97;;;8.10;93.66
20983;BME280;10650;51.528;6.748;2023-04-08T04:06:08;102069.16;;;8.07;94.24
20983;BME280;10650;51.528;6.748;2023-04-08T04:08:36;102077.09;;;8.06;94.38
20983;BME280;10650;51.528;6.748;2023-04-08T04:11:04;102083.31;;;8.06;94.75
20983;BME280;10650;51.528;6.748;2023-04-08T04:13:32;102084.13;;;8.04;93.84
20983;BME280;10650;51.528;6.748;2023-04-08T04:16:00;102085.72;;;7.94;93.30
20983;BME280;10650;51.528;6.748;2023-04-08T04:18:29;102091.75;;;7.87;93.48
20983;BME280;10650;51.528;6.748;2023-04-08T04:20:57;102089.66;;;7.75;93.21
20983;BME280;10650;51.528;6.748;2023-04-08T04:23:24;102087.84;;;7.72;93.29
20983;BME280;10650;51.528;6.748;2023-04-08T04:25:52;102096.41;;;7.60;93.15
20983;BME280;10650;51.528;6.748;2023-04-08T04:28:20;102098.03;;;7.54;93.17
20983;BME280;10650;51.528;6.748;2023-04-08T04:30:47;102097.44;;;7.31;93.00
20983;BME280;10650;51.528;6.748;2023-04-08T04:33:15;102098.47;;;7.36;94.05
20983;BME280;10650;51.528;6.748;2023-04-08T04:35:44;102100.22;;;7.35;93.39
20983;BME280;10650;51.528;6.748;2023-04-08T04:38:12;102095.88;;;7.39;93.74
20983;BME280;10650;51.528;6.748;2023-04-08T04:40:40;102107.50;;;7.42;93.46
20983;BME280;10650;51.528;6.748;2023-04-08T04:43:08;102108.38;;;7.43;93.05
20983;BME280;10650;51.528;6.748;2023-04-08T04:45:35;102095.69;;;7.31;91.87
20983;BME280;10650;51.528;6.748;2023-04-08T04:48:03;102101.94;;;7.33;92.95
20983;BME280;10650;51.528;6.748;2023-04-08T04:50:31;102116.09;;;7.32;92.48
20983;BME280;10650;51.528;6.748;2023-04-08T04:53:00;102117.34;;;7.13;91.90
20983;BME280;10650;51.528;6.748;2023-04-08T04:55:28;102118.25;;;7.14;92.10
20983;BME280;10650;51.528;6.748;2023-04-08T04:57:56;102128.66;;;7.06;91.66
20983;BME280;10650;51.528;6.748;2023-04-08T05:00:24;102135.72;;;7.04;91.75
20983;BME280;10650;51.528;6.748;2023-04-08T05:02:51;102143.31;;;6.91;91.25
20983;BME280;10650;51.528;6.748;2023-04-08T05:05:19;102142.31;;;6.86;91.10
20983;BME280;10650;51.528;6.748;2023-04-08T05:07:47;102138.78;;;6.87;91.16
20983;BME280;10650;51.528;6.748;2023-04-08T05:10:16;102133.66;;;6.93;91.33
20983;BME280;10650;51.528;6.748;2023-04-08T05:12:44;102137.16;;;6.92;90.43
20983;BME280;10650;51.528;6.748;2023-04-08T05:15:12;102133.75;;;6.97;90.27
20983;BME280;10650;51.528;6.748;2023-04-08T05:17:40;102133.78;;;6.98;89.85
20983;BME280;10650;51.528;6.748;2023-04-08T05:20:08;102141.06;;;7.05;89.89
20983;BME280;10650;51.528;6.748;2023-04-08T05:22:35;102141.06;;;7.05;89.34
20983;BME280;10650;51.528;6.748;2023-04-08T05:25:04;102142.75;;;7.03;89.27
20983;BME280;10650;51.528;6.748;2023-04-08T05:27:33;102145.28;;;6.99;88.72
20983;BME280;10650;51.528;6.748;2023-04-08T05:30:02;102146.06;;;6.95;89.14
20983;BME280;10650;51.528;6.748;2023-04-08T05:32:30;102146.09;;;6.96;89.30
20983;BME280;10650;51.528;6.748;2023-04-08T05:35:01;102145.09;;;6.91;89.11
20983;BME280;10650;51.528;6.748;2023-04-08T05:37:28;102149.56;;;6.92;89.41
20983;BME280;10650;51.528;6.748;2023-04-08T05:39:56;102145.25;;;6.97;89.36
20983;BME280;10650;51.528;6.748;2023-04-08T05:42:24;102160.63;;;7.09;89.51
20983;BME280;10650;51.528;6.748;2023-04-08T05:44:53;102166.06;;;7.12;89.13
20983;BME280;10650;51.528;6.748;2023-04-08T05:47:21;102163.44;;;7.14;89.17
20983;BME280;10650;51.528;6.748;2023-04-08T05:49:49;102172.28;;;7.13;89.05
20983;BME280;10650;51.528;6.748;2023-04-08T05:52:17;102171.38;;;7.12;88.77
20983;BME280;10650;51.528;6.748;2023-04-08T05:54:45;102177.28;;;7.02;88.58
20983;BME280;10650;51.528;6.748;2023-04-08T05:57:13;102183.91;;;6.86;88.60
20983;BME280;10650;51.528;6.748;2023-04-08T05:59:42;102179.59;;;6.89;89.23
20983;BME280;10650;51.528;6.748;2023-04-08T06:02:11;102191.94;;;6.89;89.32
20983;BME280;10650;51.528;6.748;2023-04-08T06:04:39;102179.19;;;6.75;89.22
20983;BME280;10650;51.528;6.748;2023-04-08T06:07:07;102184.56;;;6.79;89.74
20983;BME280;10650;51.528;6.748;2023-04-08T06:09:35;102179.03;;;6.71;89.50
20983;BME280;10650;51.528;6.748;2023-04-08T06:12:04;102184.38;;;6.71;89.85
20983;BME280;10650;51.528;6.748;2023-04-08T06:14:32;102182.50;;;6.68;89.77
20983;BME280;10650;51.528;6.748;2023-04-08T06:16:59;102186.88;;;6.66;89.51
20983;BME280;10650;51.528;6.748;2023-04-08T06:19:29;102190.59;;;6.73;89.94
20983;BME280;10650;51.528;6.748;2023-04-08T06:21:56;102191.91;;;6.57;89.34
20983;BME280;10650;51.528;6.748;2023-04-08T06:24:25;102192.06;;;6.63;90.04
20983;BME280;10650;51.528;6.748;2023-04-08T06:26:53;102193.13;;;6.68;89.41
20983;BME280;10650;51.528;6.748;2023-04-08T06:29:21;102197.91;;;6.80;89.47
20983;BME280;10650;51.528;6.748;2023-04-08T06:31:49;102203.41;;;6.86;89.48
20983;BME280;10650;51.528;6.748;2023-04-08T06:34:17;102205.47;;;6.97;89.56
20983;BME280;10650;51.528;6.748;2023-04-08T06:36:46;102194.44;;;6.83;88.61
20983;BME280;10650;51.528;6.748;2023-04-08T06:39:15;102207.00;;;6.88;89.08
20983;BME280;10650;51.528;6.748;2023-04-08T06:41:44;102210.25;;;6.78;88.53
20983;BME280;10650;51.528;6.748;2023-04-08T06:44:12;102217.91;;;6.69;88.93
20983;BME280;10650;51.528;6.748;2023-04-08T06:46:40;102222.59;;;6.78;89.32
20983;BME280;10650;51.528;6.748;2023-04-08T06:49:08;102219.28;;;6.85;89.52
20983;BME280;10650;51.528;6.748;2023-04-08T06:51:35;102224.59;;;6.85;88.95
20983;BME280;10650;51.528;6.748;2023-04-08T06:54:05;102232.97;;;6.68;88.01
20983;BME280;10650;51.528;6.748;2023-04-08T06:56:32;102241.03;;;6.71;88.67
20983;BME280;10650;51.528;6.748;2023-04-08T06:59:00;102234.78;;;6.69;88.97
20983;BME280;10650;51.528;6.748;2023-04-08T07:01:29;102242.97;;;6.77;89.02
20983;BME280;10650;51.528;6.748;2023-04-08T07:03:57;102239.69;;;6.86;88.97
20983;BME280;10650;51.528;6.748;2023-04-08T07:06:27;102237.13;;;6.89;88.70
20983;BME280;10650;51.528;6.748;2023-04-08T07:08:55;102244.19;;;6.88;89.24
20983;BME280;10650;51.528;6.748;2023-04-08T07:11:24;102237.41;;;6.98;89.55
20983;BME280;10650;51.528;6.748;2023-04-08T07:13:53;102236.78;;;7.07;88.95
20983;BME280;10650;51.528;6.748;2023-04-08T07:16:20;102240.56;;;7.15;89.23
20983;BME280;10650;51.528;6.748;2023-04-08T07:18:48;102246.38;;;7.32;89.39
20983;BME280;10650;51.528;6.748;2023-04-08T07:21:17;102248.44;;;7.42;88.26
20983;BME280;10650;51.528;6.748;2023-04-08T07:23:45;102259.28;;;7.50;87.97
20983;BME280;10650;51.528;6.748;2023-04-08T07:26:13;102259.31;;;7.52;87.63
20983;BME280;10650;51.528;6.748;2023-04-08T07:28:42;102264.47;;;7.45;87.58
20983;BME280;10650;51.528;6.748;2023-04-08T07:31:11;102262.00;;;7.53;88.48
20983;BME280;10650;51.528;6.748;2023-04-08T07:33:40;102267.56;;;7.61;88.19
20983;BME280;10650;51.528;6.748;2023-04-08T07:36:08;102266.84;;;7.67;87.68
20983;BME280;10650;51.528;6.748;2023-04-08T07:38:36;102275.94;;;7.76;87.30
20983;BME280;10650;51.528;6.748;2023-04-08T07:41:05;102271.97;;;7.92;87.44
20983;BME280;10650;51.528;6.748;2023-04-08T07:43:32;102271.28;;;8.01;86.59
20983;BME280;10650;51.528;6.748;2023-04-08T07:46:05;102268.09;;;8.16;86.73
20983;BME280;10650;51.528;6.748;2023-04-08T07:48:34;102266.59;;;8.26;85.97
20983;BME280;10650;51.528;6.748;2023-04-08T07:51:03;102271.06;;;8.27;85.11
20983;BME280;10650;51.528;6.748;2023-04-08T07:53:35;102273.97;;;8.38;84.95
20983;BME280;10650;51.528;6.748;2023-04-08T07:56:10;102280.69;;;8.57;84.25
20983;BME280;10650;51.528;6.748;2023-04-08T07:58:38;102277.41;;;8.69;83.94
20983;BME280;10650;51.528;6.748;2023-04-08T08:01:15;102286.97;;;8.60;82.84
20983;BME280;10650;51.528;6.748;2023-04-08T08:03:44;102294.03;;;8.57;82.43
20983;BME280;10650;51.528;6.748;2023-04-08T08:06:14;102295.72;;;8.55;84.09
20983;BME280;10650;51.528;6.748;2023-04-08T08:08:42;102289.75;;;8.65;83.86
20983;BME280;10650;51.528;6.748;2023-04-08T08:11:09;102292.41;;;8.65;82.92
20983;BME280;10650;51.528;6.748;2023-04-08T08:13:37;102299.72;;;8.74;83.88
20983;BME280;10650;51.528;6.748;2023-04-08T08:16:06;102293.00;;;8.90;84.15
20983;BME280;10650;51.528;6.748;2023-04-08T08:18:39;102288.94;;;9.07;84.26
20983;BME280;10650;51.528;6.748;2023-04-08T08:21:07;102300.78;;;9.20;83.23
20983;BME280;10650;51.528;6.748;2023-04-08T08:23:35;102299.28;;;9.33;82.41
20983;BME280;10650;51.528;6.748;2023-04-08T08:26:05;102304.78;;;9.42;83.13
20983;BME280;10650;51.528;6.748;2023-04-08T08:28:33;102306.75;;;9.52;81.68
20983;BME280;10650;51.528;6.748;2023-04-08T08:31:01;102310.41;;;9.56;80.62
20983;BME280;10650;51.528;6.748;2023-04-08T08:33:28;102313.03;;;9.53;79.03
20983;BME280;10650;51.528;6.748;2023-04-08T08:35:58;102306.88;;;9.57;78.98
20983;BME280;10650;51.528;6.748;2023-04-08T08:38:29;102313.13;;;9.58;77.59
20983;BME280;10650;51.528;6.748;2023-04-08T08:40:58;102315.81;;;9.59;78.15
20983;BME280;10650;51.528;6.748;2023-04-08T08:43:27;102307.88;;;9.64;77.85
20983;BME280;10650;51.528;6.748;2023-04-08T08:45:55;102309.84;;;9.74;77.95
20983;BME280;10650;51.528;6.748;2023-04-08T08:48:23;102309.78;;;9.69;77.37
20983;BME280;10650;51.528;6.748;2023-04-08T08:50:51;102308.91;;;9.70;77.18
20983;BME280;10650;51.528;6.748;2023-04-08T08:53:28;102309.00;;;9.75;76.95
20983;BME280;10650;51.528;6.748;2023-04-08T08:55:59;102309.91;;;9.76;77.57
20983;BME280;10650;51.528;6.748;2023-04-08T08:58:30;102311.63;;;9.72;76.86
20983;BME280;10650;51.528;6.748;2023-04-08T09:00:58;102315.16;;;9.73;76.10
20983;BME280;10650;51.528;6.748;2023-04-08T09:03:27;102308.28;;;9.85;76.95
20983;BME280;10650;51.528;6.748;2023-04-08T09:05:56;102315.66;;;9.97;75.88
20983;BME280;10650;51.528;6.748;2023-04-08T09:08:28;102315.41;;;9.83;75.51
20983;BME280;10650;51.528;6.748;2023-04-08T09:11:10;102315.56;;;9.93;76.15
20983;BME280;10650;51.528;6.748;2023-04-08T09:13:39;102314.56;;;9.86;75.60
20983;BME280;10650;51.528;6.748;2023-04-08T09:16:08;102316.56;;;9.99;76.21
20983;BME280;10650;51.528;6.748;2023-04-08T09:18:37;102319.56;;;10.16;75.38
20983;BME280;10650;51.528;6.748;2023-04-08T09:21:06;102322.38;;;10.26;74.60
20983;BME280;10650;51.528;6.748;2023-04-08T09:23:40;102332.53;;;10.44;74.79
20983;BME280;10650;51.528;6.748;2023-04-08T09:26:10;102340.47;;;10.39;73.89
20983;BME280;10650;51.528;6.748;2023-04-08T09:28:39;102340.47;;;10.39;74.35
20983;BME280;10650;51.528;6.748;2023-04-08T09:31:18;102352.13;;;10.44;74.28
20983;BME280;10650;51.528;6.748;2023-04-08T09:33:47;102336.47;;;10.17;73.03
20983;BME280;10650;51.528;6.748;2023-04-08T09:36:16;102333.66;;;10.08;73.79
20983;BME280;10650;51.528;6.748;2023-04-08T09:38:45;102334.47;;;10.05;74.65
20983;BME280;10650;51.528;6.748;2023-04-08T09:41:15;102336.28;;;10.06;75.28
20983;BME280;10650;51.528;6.748;2023-04-08T09:43:47;102341.78;;;10.15;75.08
20983;BME280;10650;51.528;6.748;2023-04-08T09:46:18;102339.41;;;10.31;73.79
20983;BME280;10650;51.528;6.748;2023-04-08T09:48:48;102343.19;;;10.42;73.67
20983;BME280;10650;51.528;6.748;2023-04-08T09:51:18;102338.81;;;10.47;73.85
20983;BME280;10650;51.528;6.748;2023-04-08T09:53:54;102331.19;;;10.70;74.03
20983;BME280;10650;51.528;6.748;2023-04-08T09:56:25;102329.81;;;10.99;73.49
20983;BME280;10650;51.528;6.748;2023-04-08T09:58:58;102329.28;;;11.24;73.22
20983;BME280;10650;51.528;6.748;2023-04-08T10:01:29;102335.88;;;11.51;72.78
20983;BME280;10650;51.528;6.748;2023-04-08T10:04:01;102327.03;;;11.55;69.63
20983;BME280;10650;51.528;6.748;2023-04-08T10:06:32;102321.84;;;11.71;69.82
20983;BME280;10650;51.528;6.748;2023-04-08T10:09:02;102322.88;;;11.84;68.93
20983;BME280;10650;51.528;6.748;2023-04-08T10:11:32;102325.63;;;11.88;67.89
20983;BME280;10650;51.528;6.748;2023-04-08T10:14:02;102322.97;;;11.91;67.40
20983;BME280;10650;51.528;6.748;2023-04-08T10:16:29;102316.78;;;11.94;66.55
20983;BME280;10650;51.528;6.748;2023-04-08T10:18:57;102321.34;;;12.06;66.85
20983;BME280;10650;51.528;6.748;2023-04-08T10:21:33;102332.94;;;12.05;65.66
20983;BME280;10650;51.528;6.748;2023-04-08T10:24:05;102331.16;;;12.04;64.41
20983;BME280;10650;51.528;6.748;2023-04-08T10:26:34;102342.84;;;12.12;65.09
20983;BME280;10650;51.528;6.748;2023-04-08T10:29:30;102343.81;;;12.20;63.67
20983;BME280;10650;51.528;6.748;2023-04-08T10:31:59;102338.47;;;12.23;64.04
20983;BME280;10650;51.528;6.748;2023-04-08T10:34:28;102337.63;;;12.27;64.02
20983;BME280;10650;51.528;6.748;2023-04-08T10:36:56;102339.47;;;12.33;63.62
20983;BME280;10650;51.528;6.748;2023-04-08T10:39:30;102335.81;;;12.25;62.24
20983;BME280;10650;51.528;6.748;2023-04-08T10:42:00;102333.94;;;12.15;63.91
20983;BME280;10650;51.528;6.748;2023-04-08T10:44:28;102327.66;;;12.09;63.72
20983;BME280;10650;51.528;6.748;2023-04-08T10:46:56;102330.25;;;12.03;63.82
20983;BME280;10650;51.528;6.748;2023-04-08T10:49:31;102333.75;;;11.96;63.93
20983;BME280;10650;51.528;6.748;2023-04-08T10:51:59;102330.91;;;11.82;64.19
20983;BME280;10650;51.528;6.748;2023-04-08T10:54:27;102331.63;;;11.69;64.32
20983;BME280;10650;51.528;6.748;2023-04-08T10:56:56;102328.72;;;11.49;63.85
20983;BME280;10650;51.528;6.748;2023-04-08T10:59:29;102333.03;;;11.37;64.63
20983;BME280;10650;51.528;6.748;2023-04-08T11:01:58;102334.84;;;11.40;65.84
20983;BME280;10650;51.528;6.748;2023-04-08T11:04:27;102323.47;;;11.55;66.46
20983;BME280;10650;51.528;6.748;2023-04-08T11:06:55;102316.47;;;11.68;66.30
20983;BME280;10650;51.528;6.748;2023-04-08T11:09:23;102322.81;;;11.79;66.52
20983;BME280;10650;51.528;6.748;2023-04-08T11:11:52;102321.06;;;11.81;65.17
20983;BME280;10650;51.528;6.748;2023-04-08T11:14:22;102327.31;;;11.83;65.04
20983;BME280;10650;51.528;6.748;2023-04-08T11:16:50;102316.56;;;11.77;63.47
20983;BME280;10650;51.528;6.748;2023-04-08T11:19:18;102321.97;;;11.82;63.94
20983;BME280;10650;51.528;6.748;2023-04-08T11:21:46;102321.13;;;11.86;64.86
20983;BME280;10650;51.528;6.748;2023-04-08T11:24:14;102319.53;;;12.02;64.95
20983;BME280;10650;51.528;6.748;2023-04-08T11:26:43;102316.97;;;12.14;64.03
20983;BME280;10650;51.528;6.748;2023-04-08T11:29:11;102326.75;;;12.12;62.43
20983;BME280;10650;51.528;6.748;2023-04-08T11:31:42;102322.19;;;12.02;61.16
20983;BME280;10650;51.528;6.748;2023-04-08T11:34:10;102320.34;;;11.94;60.95
20983;BME280;10650;51.528;6.748;2023-04-08T11:36:39;102322.13;;;11.94;60.87
20983;BME280;10650;51.528;6.748;2023-04-08T11:39:10;102316.84;;;12.02;61.76
20983;BME280;10650;51.528;6.748;2023-04-08T11:41:38;102317.75;;;12.02;60.75
20983;BME280;10650;51.528;6.748;2023-04-08T11:44:06;102324.09;;;12.12;61.56
20983;BME280;10650;51.528;6.748;2023-04-08T11:46:38;102319.72;;;12.20;61.81
20983;BME280;10650;51.528;6.748;2023-04-08T11:49:10;102326.94;;;12.32;61.23
20983;BME280;10650;51.528;6.748;2023-04-08T11:51:53;102323.41;;;12.36;60.25
20983;BME280;10650;51.528;6.748;2023-04-08T11:54:25;102320.88;;;12.50;61.18
20983;BME280;10650;51.528;6.748;2023-04-08T11:56:54;102329.91;;;12.63;60.51
20983;BME280;10650;51.528;6.748;2023-04-08T11:59:23;102331.84;;;12.84;60.88
20983;BME280;10650;51.528;6.748;2023-04-08T12:01:55;102330.13;;;12.92;59.51
20983;BME280;10650;51.528;6.748;2023-04-08T12:04:24;102331.16;;;13.18;60.69
20983;BME280;10650;51.528;6.748;2023-04-08T12:06:52;102324.16;;;13.43;60.94
20983;BME280;10650;51.528;6.748;2023-04-08T12:09:23;102333.03;;;13.34;59.02
20983;BME280;10650;51.528;6.748;2023-04-08T12:11:51;102330.28;;;13.23;58.96
20983;BME280;10650;51.528;6.748;2023-04-08T12:14:19;102332.13;;;13.29;59.02
20983;BME280;10650;51.528;6.748;2023-04-08T12:16:53;102322.34;;;13.39;59.28
20983;BME280;10650;51.528;6.748;2023-04-08T12:19:21;102323.25;;;13.39;59.19
20983;BME280;10650;51.528;6.748;2023-04-08T12:21:50;102325.94;;;13.42;60.12
20983;BME280;10650;51.528;6.748;2023-04-08T12:24:18;102328.56;;;13.33;59.33
20983;BME280;10650;51.528;6.748;2023-04-08T12:26:47;102331.28;;;13.38;60.00
20983;BME280;10650;51.528;6.748;2023-04-08T12:29:14;102331.34;;;13.45;59.71
20983;BME280;10650;51.528;6.748;2023-04-08T12:31:42;102324.16;;;13.38;59.69
20983;BME280;10650;51.528;6.748;2023-04-08T12:34:11;102326.00;;;13.58;59.82
20983;BME280;10650;51.528;6.748;2023-04-08T12:36:39;102317.97;;;13.62;59.70
20983;BME280;10650;51.528;6.748;2023-04-08T12:39:08;102312.56;;;13.55;59.82
20983;BME280;10650;51.528;6.748;2023-04-08T12:41:36;102310.84;;;13.75;60.58
20983;BME280;10650;51.528;6.748;2023-04-08T12:44:04;102315.38;;;13.92;59.63
20983;BME280;10650;51.528;6.748;2023-04-08T12:46:32;102310.88;;;13.89;59.29
20983;BME280;10650;51.528;6.748;2023-04-08T12:49:00;102313.56;;;13.91;59.68
20983;BME280;10650;51.528;6.748;2023-04-08T12:51:31;102306.44;;;13.91;59.69
20983;BME280;10650;51.528;6.748;2023-04-08T12:53:59;102312.63;;;13.78;59.37
20983;BME280;10650;51.528;6.748;2023-04-08T12:56:29;102310.88;;;13.83;59.82
20983;BME280;10650;51.528;6.748;2023-04-08T12:58:57;102312.63;;;13.75;60.02
20983;BME280;10650;51.528;6.748;2023-04-08T13:01:25;102312.63;;;13.69;59.72
20983;BME280;10650;51.528;6.748;2023-04-08T13:03:54;102312.59;;;13.59;60.21
20983;BME280;10650;51.528;6.748;2023-04-08T13:06:22;102313.44;;;13.44;60.30
20983;BME280;10650;51.528;6.748;2023-04-08T13:08:51;102317.00;;;13.40;60.26